createdAt,value
2022-09-07T00:01:12.582Z,14.55
2022-09-07T00:03:40.767Z,15.93
2022-09-07T00:06:13.006Z,17.19
2022-09-07T00:08:43.872Z,17.56
2022-09-07T00:11:18.475Z,16.59
2022-09-07T00:13:49.484Z,15.60
2022-09-07T00:16:30.422Z,14.87
2022-09-07T00:19:01.783Z,14.28
2022-09-07T00:21:30.686Z,13.76
2022-09-07T00:23:59.330Z,13.67
2022-09-07T00:26:33.963Z,15.10
2022-09-07T00:29:04.547Z,16.53
2022-09-07T00:31:34.854Z,17.08
2022-09-07T00:34:03.334Z,16.16
2022-09-07T00:36:31.301Z,15.09
2022-09-07T00:38:59.468Z,14.31
2022-09-07T00:41:27.613Z,13.73
2022-09-07T00:44:18.592Z,13.28
2022-09-07T00:46:47.121Z,13.40
2022-09-07T00:49:21.770Z,14.99
2022-09-07T00:51:57.979Z,16.36
2022-09-07T00:54:43.574Z,17.08
2022-09-07T00:57:12.934Z,16.53
2022-09-07T00:59:49.736Z,15.39
2022-09-07T01:02:19.125Z,14.48
2022-09-07T01:04:52.065Z,13.84
2022-09-07T01:07:20.607Z,13.27
2022-09-07T01:09:50.937Z,13.19
2022-09-07T01:12:18.716Z,14.70
2022-09-07T01:14:51.980Z,16.13
2022-09-07T01:17:42.217Z,16.70
2022-09-07T01:20:40.655Z,15.63
2022-09-07T01:23:27.918Z,14.43
2022-09-07T01:26:21.199Z,13.59
2022-09-07T01:28:57.642Z,12.97
2022-09-07T01:31:44.619Z,12.51
2022-09-07T01:34:25.881Z,12.79
2022-09-07T01:37:22.278Z,14.67
2022-09-07T01:40:06.092Z,16.20
2022-09-07T01:42:49.382Z,16.94
2022-09-07T01:45:24.370Z,16.35
2022-09-07T01:48:00.504Z,15.13
2022-09-07T01:50:54.219Z,14.18
2022-09-07T01:53:34.090Z,13.41
2022-09-07T01:56:36.329Z,13.37
2022-09-07T01:59:28.782Z,15.20
2022-09-07T02:02:24.270Z,16.48
2022-09-07T02:05:00.651Z,16.80
2022-09-07T02:07:40.359Z,15.64
2022-09-07T02:10:21.156Z,14.49
2022-09-07T02:13:18.175Z,13.56
2022-09-07T02:16:00.428Z,13.40
2022-09-07T02:18:37.684Z,15.02
2022-09-07T02:21:10.314Z,16.32
2022-09-07T02:23:57.139Z,16.73
2022-09-07T02:26:29.455Z,15.60
2022-09-07T02:28:58.325Z,14.56
2022-09-07T02:31:26.367Z,13.82
2022-09-07T02:33:54.399Z,13.30
2022-09-07T02:36:28.055Z,13.27
2022-09-07T02:38:56.256Z,14.86
2022-09-07T02:41:39.098Z,16.31
2022-09-07T02:44:18.444Z,16.29
2022-09-07T02:47:12.585Z,15.09
2022-09-07T02:50:17.470Z,14.05
2022-09-07T02:53:17.406Z,13.25
2022-09-07T02:56:12.974Z,12.69
2022-09-07T02:58:55.832Z,12.25
2022-09-07T03:01:56.356Z,12.47
2022-09-07T03:04:46.413Z,14.53
2022-09-07T03:07:24.189Z,15.84
2022-09-07T03:09:57.247Z,15.57
2022-09-07T03:12:25.639Z,14.41
2022-09-07T03:14:53.329Z,13.50
2022-09-07T03:17:21.098Z,12.85
2022-09-07T03:19:48.887Z,12.35
2022-09-07T03:22:16.606Z,12.36
2022-09-07T03:24:44.820Z,13.90
2022-09-07T03:27:12.597Z,15.36
2022-09-07T03:29:42.169Z,15.95
2022-09-07T03:32:10.064Z,15.03
2022-09-07T03:34:37.753Z,13.95
2022-09-07T03:37:05.588Z,13.13
2022-09-07T03:39:33.561Z,12.47
2022-09-07T03:42:01.231Z,12.25
2022-09-07T03:44:29.088Z,13.64
2022-09-07T03:46:57.231Z,15.02
2022-09-07T03:49:24.949Z,15.44
2022-09-07T03:51:52.690Z,14.52
2022-09-07T03:54:20.437Z,13.42
2022-09-07T03:56:48.445Z,12.62
2022-09-07T03:59:16.180Z,12.00
2022-09-07T04:01:44.302Z,11.84
2022-09-07T04:04:13.251Z,13.30
2022-09-07T04:06:41.102Z,14.77
2022-09-07T04:09:13.974Z,15.61
2022-09-07T04:11:42.504Z,15.74
2022-09-07T04:14:11.560Z,14.57
2022-09-07T04:16:39.671Z,13.39
2022-09-07T04:19:07.812Z,12.52
2022-09-07T04:21:35.829Z,12.16
2022-09-07T04:24:04.074Z,13.36
2022-09-07T04:26:35.642Z,14.73
2022-09-07T04:29:06.221Z,15.67
2022-09-07T04:31:35.486Z,15.57
2022-09-07T04:34:05.257Z,14.45
2022-09-07T04:36:33.797Z,13.42
2022-09-07T04:39:06.046Z,12.67
2022-09-07T04:41:35.190Z,12.08
2022-09-07T04:44:04.817Z,12.06
2022-09-07T04:46:37.921Z,13.65
2022-09-07T04:49:09.433Z,15.11
2022-09-07T04:51:39.564Z,15.61
2022-09-07T04:54:07.386Z,14.62
2022-09-07T04:56:35.414Z,13.48
2022-09-07T04:59:04.152Z,12.59
2022-09-07T05:01:32.059Z,12.31
2022-09-07T05:04:02.457Z,13.66
2022-09-07T05:06:30.813Z,15.02
2022-09-07T05:09:00.025Z,15.59
2022-09-07T05:11:29.868Z,14.69
2022-09-07T05:14:03.627Z,13.51
2022-09-07T05:16:32.199Z,12.60
2022-09-07T05:19:03.192Z,12.27
2022-09-07T05:21:34.394Z,13.62
2022-09-07T05:24:04.435Z,15.06
2022-09-07T05:26:36.376Z,15.95
2022-09-07T05:31:55.208Z,14.82
2022-09-07T05:34:31.882Z,13.75
2022-09-07T05:37:01.633Z,12.98
2022-09-07T05:39:30.731Z,12.87
2022-09-07T05:41:58.627Z,14.34
2022-09-07T05:47:10.706Z,16.07
2022-09-07T05:49:38.638Z,14.79
2022-09-07T05:52:06.993Z,13.58
2022-09-07T05:54:34.972Z,13.15
2022-09-07T05:57:03.763Z,14.38
2022-09-07T05:59:31.659Z,15.60
2022-09-07T06:02:00.569Z,16.20
2022-09-07T06:04:29.234Z,15.18
2022-09-07T06:07:20.721Z,13.99
2022-09-07T06:12:33.870Z,12.89
2022-09-07T06:15:02.138Z,14.21
2022-09-07T06:17:31.143Z,15.53
2022-09-07T06:19:59.084Z,16.06
2022-09-07T06:22:30.726Z,15.19
2022-09-07T06:24:59.610Z,14.13
2022-09-07T06:27:28.054Z,13.31
2022-09-07T06:29:55.980Z,13.46
2022-09-07T06:35:13.800Z,16.15
2022-09-07T06:37:42.592Z,16.07
2022-09-07T06:40:11.899Z,15.08
2022-09-07T06:42:39.822Z,14.14
2022-09-07T06:45:10.135Z,13.68
2022-09-07T06:47:37.933Z,14.65
2022-09-07T06:50:06.676Z,15.91
2022-09-07T06:55:28.025Z,15.59
2022-09-07T06:57:56.318Z,14.67
2022-09-07T07:00:24.223Z,13.97
2022-09-07T07:02:52.182Z,14.69
2022-09-07T07:05:20.013Z,15.78
2022-09-07T07:07:48.011Z,16.36
2022-09-07T07:10:17.851Z,15.50
2022-09-07T07:12:47.566Z,14.48
2022-09-07T07:15:15.420Z,13.75
2022-09-07T07:17:43.853Z,14.40
2022-09-07T07:20:12.142Z,15.87
2022-09-07T07:22:46.407Z,17.00
2022-09-07T07:25:15.530Z,17.35
2022-09-07T07:27:45.932Z,16.28
2022-09-07T07:30:17.290Z,15.21
2022-09-07T07:32:46.427Z,14.35
2022-09-07T07:35:15.077Z,13.79
2022-09-07T07:37:43.194Z,13.77
2022-09-07T07:42:46.258Z,16.75
2022-09-07T07:48:02.899Z,16.37
2022-09-07T07:50:31.634Z,15.46
2022-09-07T07:55:48.783Z,14.15
2022-09-07T07:58:16.958Z,14.13
2022-09-07T08:00:54.257Z,15.69
2022-09-07T08:03:25.478Z,17.01
2022-09-07T08:05:54.825Z,16.83
2022-09-07T08:08:24.108Z,16.00
2022-09-07T08:10:52.500Z,15.27
2022-09-07T08:13:21.387Z,14.81
2022-09-07T08:15:50.686Z,14.83
2022-09-07T08:18:18.904Z,16.39
2022-09-07T08:20:46.617Z,17.73
2022-09-07T08:23:15.430Z,18.36
2022-09-07T08:25:55.194Z,17.57
2022-09-07T08:28:23.666Z,16.66
2022-09-07T08:30:52.213Z,16.07
2022-09-07T08:33:20.684Z,15.58
2022-09-07T08:36:01.114Z,15.56
2022-09-07T08:38:31.794Z,17.17
2022-09-07T08:41:01.422Z,18.45
2022-09-07T08:43:49.090Z,18.32
2022-09-07T08:46:45.768Z,17.39
2022-09-07T08:49:22.069Z,16.60
2022-09-07T08:52:00.223Z,16.08
2022-09-07T08:54:29.372Z,15.87
2022-09-07T09:00:11.834Z,18.43
2022-09-07T09:02:43.772Z,17.91
2022-09-07T09:05:31.786Z,17.30
2022-09-07T09:08:27.267Z,16.76
2022-09-07T09:11:35.138Z,16.31
2022-09-07T09:14:24.445Z,16.65
2022-09-07T09:17:07.678Z,18.24
2022-09-07T09:20:00.276Z,18.40
2022-09-07T09:22:29.169Z,17.82
2022-09-07T09:25:30.340Z,17.42
2022-09-07T09:27:58.035Z,17.16
2022-09-07T09:30:27.300Z,17.05
2022-09-07T09:33:22.040Z,17.01
2022-09-07T09:35:54.371Z,16.94
2022-09-07T09:38:40.867Z,17.10
2022-09-07T09:41:15.273Z,18.94
2022-09-07T09:43:55.103Z,20.16
2022-09-07T09:46:37.050Z,19.87
2022-09-07T09:49:26.342Z,19.32
2022-09-07T09:54:52.631Z,18.61
2022-09-07T10:06:23.145Z,18.28
2022-09-07T10:09:02.503Z,18.31
2022-09-07T10:12:09.064Z,18.35
2022-09-07T10:14:44.582Z,18.44
2022-09-07T10:17:31.456Z,18.55
2022-09-07T10:20:21.894Z,18.67
2022-09-07T10:22:52.599Z,18.78
2022-09-07T10:25:31.621Z,18.94
2022-09-07T10:28:09.370Z,19.09
2022-09-07T10:30:46.147Z,19.24
2022-09-07T10:33:28.870Z,19.34
2022-09-07T10:36:08.846Z,19.40
2022-09-07T10:38:53.985Z,19.46
2022-09-07T10:41:51.313Z,19.59
2022-09-07T10:44:57.113Z,19.80
2022-09-07T10:48:10.323Z,20.02
2022-09-07T10:51:16.302Z,20.20
2022-09-07T10:57:37.286Z,20.49
2022-09-07T11:00:17.540Z,20.63
2022-09-07T11:03:37.354Z,20.75
2022-09-07T11:06:22.326Z,20.93
2022-09-07T11:09:21.964Z,21.11
2022-09-07T11:12:09.658Z,21.26
2022-09-07T11:14:48.137Z,21.18
2022-09-07T11:17:30.090Z,21.00
2022-09-07T11:20:13.858Z,20.76
2022-09-07T11:23:19.822Z,20.49
2022-09-07T11:26:03.506Z,20.24
2022-09-07T11:28:45.348Z,20.07
2022-09-07T11:31:43.596Z,19.94
2022-09-07T11:34:33.176Z,19.83
2022-09-07T11:37:12.130Z,19.88
2022-09-07T11:40:21.649Z,19.92
2022-09-07T11:42:59.709Z,19.88
2022-09-07T11:45:40.203Z,19.85
2022-09-07T11:48:22.297Z,19.89
2022-09-07T11:51:01.684Z,19.96
2022-09-07T11:53:36.622Z,19.88
2022-09-07T11:56:22.179Z,19.75
2022-09-07T11:59:11.450Z,19.76
2022-09-07T12:02:11.065Z,19.94
2022-09-07T12:05:16.222Z,20.15
2022-09-07T12:08:25.032Z,20.18
2022-09-07T12:11:08.393Z,20.12
2022-09-07T12:13:45.120Z,20.02
2022-09-07T12:16:40.169Z,19.95
2022-09-07T12:19:21.748Z,19.94
2022-09-07T12:21:52.570Z,20.05
2022-09-07T12:24:51.468Z,20.23
2022-09-07T12:27:22.265Z,20.48
2022-09-07T12:30:13.570Z,20.50
2022-09-07T12:32:55.296Z,20.47
2022-09-07T12:35:26.666Z,20.45
2022-09-07T12:37:56.575Z,20.44
2022-09-07T12:40:36.263Z,20.43
2022-09-07T12:43:13.060Z,20.40
2022-09-07T12:45:41.652Z,20.36
2022-09-07T12:48:46.858Z,20.32
2022-09-07T12:54:38.003Z,20.22
2022-09-07T12:57:38.048Z,20.18
2022-09-07T13:00:23.737Z,20.17
2022-09-07T13:09:40.092Z,21.11
2022-09-07T13:12:57.203Z,21.42
2022-09-07T13:15:49.011Z,21.76
2022-09-07T13:18:25.987Z,22.06
2022-09-07T13:21:09.046Z,22.34
2022-09-07T13:23:43.113Z,22.52
2022-09-07T13:26:57.518Z,22.68
2022-09-07T13:29:38.535Z,22.91
2022-09-07T13:35:25.329Z,23.26
2022-09-07T13:37:59.769Z,23.38
2022-09-07T13:40:32.450Z,23.48
2022-09-07T13:43:04.266Z,23.52
2022-09-07T13:46:04.538Z,23.54
2022-09-07T13:48:54.052Z,23.57
2022-09-07T13:51:47.271Z,23.64
2022-09-07T13:54:58.706Z,23.70
2022-09-07T13:57:39.645Z,23.76
2022-09-07T14:00:15.177Z,23.78
2022-09-07T14:02:43.561Z,23.79
2022-09-07T14:05:18.689Z,23.79
2022-09-07T14:07:48.724Z,23.74
2022-09-07T14:10:23.910Z,23.62
2022-09-07T14:12:54.447Z,23.48
2022-09-07T14:15:50.756Z,23.40
2022-09-07T14:18:29.872Z,23.27
2022-09-07T14:20:58.843Z,23.11
2022-09-07T14:23:35.007Z,22.97
2022-09-07T14:26:19.283Z,22.82
2022-09-07T14:28:54.230Z,22.69
2022-09-07T14:31:25.097Z,22.61
2022-09-07T14:33:59.517Z,22.51
2022-09-07T14:36:45.645Z,22.37
2022-09-07T14:39:17.728Z,22.26
2022-09-07T14:41:47.220Z,22.24
2022-09-07T14:44:43.024Z,22.26
2022-09-07T14:47:34.009Z,22.25
2022-09-07T14:50:06.290Z,22.25
2022-09-07T14:53:33.373Z,22.27
2022-09-07T14:55:40.338Z,22.27
2022-09-07T14:58:13.159Z,22.19
2022-09-07T15:03:42.459Z,21.96
2022-09-07T15:07:00.921Z,21.92
2022-09-07T15:08:59.785Z,21.91
2022-09-07T15:11:33.383Z,21.95
2022-09-07T15:14:08.739Z,22.00
2022-09-07T15:19:50.456Z,22.13
2022-09-07T15:22:19.309Z,22.20
2022-09-07T15:24:48.867Z,22.26
2022-09-07T15:27:27.203Z,22.31
2022-09-07T15:29:55.772Z,22.35
2022-09-07T15:32:24.354Z,22.40
2022-09-07T15:34:53.426Z,22.47
2022-09-07T15:40:26.400Z,22.62
2022-09-07T15:43:00.597Z,22.67
2022-09-07T15:45:28.655Z,22.69
2022-09-07T15:47:57.014Z,22.73
2022-09-07T15:50:25.125Z,22.79
2022-09-07T15:52:52.922Z,22.83
2022-09-07T15:55:22.230Z,22.90
2022-09-07T15:57:56.868Z,22.97
2022-09-07T16:00:27.959Z,23.06
2022-09-07T16:03:11.379Z,23.11
2022-09-07T16:05:44.893Z,23.08
2022-09-07T16:08:32.762Z,23.09
2022-09-07T16:11:18.520Z,23.10
2022-09-07T16:13:48.345Z,23.12
2022-09-07T16:16:16.422Z,23.12
2022-09-07T16:18:46.700Z,23.12
2022-09-07T16:21:16.760Z,23.12
2022-09-07T16:23:48.869Z,23.08
2022-09-07T16:26:21.247Z,23.09
2022-09-07T16:28:51.889Z,23.11
2022-09-07T16:31:28.094Z,23.13
2022-09-07T16:33:55.941Z,23.10
2022-09-07T16:36:24.169Z,23.01
2022-09-07T16:38:59.269Z,22.93
2022-09-07T16:41:33.113Z,22.89
2022-09-07T16:44:00.817Z,22.81
2022-09-07T16:46:35.332Z,22.75
2022-09-07T16:49:04.162Z,22.65
2022-09-07T16:51:31.819Z,22.49
2022-09-07T16:54:00.330Z,22.31
2022-09-07T16:56:33.658Z,22.15
2022-09-07T16:59:08.645Z,21.97
2022-09-07T17:01:38.062Z,21.71
2022-09-07T17:04:11.233Z,21.44
2022-09-07T17:06:40.735Z,21.18
2022-09-07T17:09:09.011Z,20.95
2022-09-07T17:11:37.717Z,20.73
2022-09-07T17:14:06.701Z,20.54
2022-09-07T17:16:38.907Z,20.37
2022-09-07T17:22:00.358Z,20.18
2022-09-07T17:24:29.627Z,20.13
2022-09-07T17:27:00.588Z,20.05
2022-09-07T17:29:30.639Z,19.98
2022-09-07T17:34:47.870Z,19.69
2022-09-07T17:37:15.902Z,19.47
2022-09-07T17:39:44.380Z,19.26
2022-09-07T17:42:12.769Z,19.05
2022-09-07T17:44:40.502Z,18.79
2022-09-07T17:47:08.325Z,18.52
2022-09-07T17:49:36.318Z,18.30
2022-09-07T17:52:04.341Z,18.11
2022-09-07T17:54:32.963Z,17.92
2022-09-07T17:57:00.716Z,17.74
2022-09-07T18:02:16.415Z,17.50
2022-09-07T18:04:44.136Z,17.41
2022-09-07T18:07:12.176Z,17.31
2022-09-07T18:09:40.460Z,17.22
2022-09-07T18:12:08.549Z,17.13
2022-09-07T18:14:36.298Z,17.04
2022-09-07T18:17:05.592Z,16.96
2022-09-07T18:19:33.539Z,16.86
2022-09-07T18:22:03.873Z,16.75
2022-09-07T18:24:32.146Z,16.66
2022-09-07T18:26:59.991Z,16.60
2022-09-07T18:29:31.085Z,16.56
2022-09-07T18:32:05.715Z,16.54
2022-09-07T18:34:37.105Z,16.52
2022-09-07T18:37:06.669Z,16.50
2022-09-07T18:39:35.791Z,16.46
2022-09-07T18:42:04.322Z,16.76
2022-09-07T18:47:27.895Z,19.93
2022-09-07T18:49:57.337Z,20.55
2022-09-07T18:55:14.507Z,18.92
2022-09-07T18:57:42.741Z,18.33
2022-09-07T19:00:13.328Z,17.90
2022-09-07T19:02:41.506Z,17.55
2022-09-07T19:07:59.765Z,16.99
2022-09-07T19:10:27.756Z,16.77
2022-09-07T19:12:56.271Z,16.56
2022-09-07T19:15:24.186Z,16.70
2022-09-07T19:17:52.063Z,18.20
2022-09-07T19:20:20.249Z,19.67
2022-09-07T19:22:48.332Z,20.28
2022-09-07T19:25:17.404Z,19.55
2022-09-07T19:27:45.813Z,18.72
2022-09-07T19:30:15.273Z,18.13
2022-09-07T19:32:43.640Z,17.71
2022-09-07T19:35:11.374Z,17.40
2022-09-07T19:37:39.381Z,17.15
2022-09-07T19:40:14.766Z,16.89
2022-09-07T19:42:46.565Z,16.62
2022-09-07T19:45:15.298Z,16.37
2022-09-07T19:47:43.104Z,16.18
2022-09-07T19:50:11.622Z,16.00
2022-09-07T19:52:39.286Z,15.83
2022-09-07T19:55:08.225Z,15.65
2022-09-07T19:57:35.968Z,15.50
2022-09-07T20:00:05.474Z,15.73
2022-09-07T20:02:33.464Z,17.35
2022-09-07T20:05:01.157Z,18.89
2022-09-07T20:07:28.810Z,19.52
2022-09-07T20:09:57.068Z,18.79
2022-09-07T20:12:24.871Z,18.02
2022-09-07T20:14:52.484Z,17.48
2022-09-07T20:17:20.213Z,17.08
2022-09-07T20:19:47.924Z,16.72
2022-09-07T20:22:15.603Z,16.42
2022-09-07T20:24:43.858Z,16.14
2022-09-07T20:27:11.521Z,16.23
2022-09-07T20:29:39.436Z,17.72
2022-09-07T20:32:07.138Z,19.19
2022-09-07T20:34:35.043Z,19.79
2022-09-07T20:37:02.702Z,19.04
2022-09-07T20:39:30.485Z,18.13
2022-09-07T20:41:59.135Z,17.48
2022-09-07T20:44:27.316Z,17.00
2022-09-07T20:46:55.241Z,16.65
2022-09-07T20:49:23.025Z,16.38
2022-09-07T20:51:50.817Z,16.47
2022-09-07T20:54:18.869Z,17.90
2022-09-07T20:56:46.804Z,19.29
2022-09-07T20:59:15.334Z,19.90
2022-09-07T21:01:43.165Z,19.16
2022-09-07T21:04:11.089Z,18.23
2022-09-07T21:06:38.815Z,17.56
2022-09-07T21:09:06.502Z,17.09
2022-09-07T21:11:36.893Z,16.72
2022-09-07T21:14:12.560Z,16.37
2022-09-07T21:16:40.965Z,16.04
2022-09-07T21:19:12.882Z,16.19
2022-09-07T21:21:42.861Z,17.84
2022-09-07T21:24:21.276Z,19.27
2022-09-07T21:26:50.835Z,19.75
2022-09-07T21:29:24.408Z,18.86
2022-09-07T21:31:55.834Z,17.95
2022-09-07T21:34:24.004Z,17.27
2022-09-07T21:36:52.905Z,16.76
2022-09-07T21:39:21.612Z,16.38
2022-09-07T21:41:49.304Z,16.06
2022-09-07T21:44:17.403Z,15.73
2022-09-07T21:46:45.650Z,15.88
2022-09-07T21:49:13.759Z,17.45
2022-09-07T21:51:41.482Z,18.88
2022-09-07T21:54:09.603Z,19.50
2022-09-07T21:56:37.266Z,18.72
2022-09-07T21:59:05.201Z,17.85
2022-09-07T22:01:33.116Z,17.20
2022-09-07T22:04:05.202Z,16.73
2022-09-07T22:06:34.542Z,16.34
2022-09-07T22:09:05.130Z,16.00
2022-09-07T22:11:33.261Z,16.09
2022-09-07T22:14:04.884Z,17.56
2022-09-07T22:16:34.590Z,18.94
2022-09-07T22:19:02.863Z,19.51
2022-09-07T22:21:31.698Z,18.67
2022-09-07T22:24:03.947Z,17.69
2022-09-07T22:26:39.951Z,16.99
2022-09-07T22:29:11.081Z,16.49
2022-09-07T22:31:41.181Z,16.16
2022-09-07T22:34:10.442Z,15.89
2022-09-07T22:36:44.629Z,15.65
2022-09-07T22:39:16.856Z,15.42
2022-09-07T22:41:47.576Z,15.66
2022-09-07T22:44:18.236Z,17.30
2022-09-07T22:46:47.567Z,18.70
2022-09-07T22:49:17.182Z,18.95
2022-09-07T22:51:47.382Z,18.04
2022-09-07T22:54:15.106Z,17.20
2022-09-07T22:56:43.222Z,16.60
2022-09-07T22:59:13.317Z,16.16
2022-09-07T23:01:41.918Z,15.82
2022-09-07T23:04:11.177Z,15.55
2022-09-07T23:06:42.665Z,15.70
2022-09-07T23:09:17.607Z,17.32
2022-09-07T23:11:48.137Z,18.81
2022-09-07T23:14:24.629Z,19.34
2022-09-07T23:16:52.655Z,18.46
2022-09-07T23:19:20.991Z,17.61
2022-09-07T23:21:49.209Z,16.99
2022-09-07T23:24:19.120Z,16.49
2022-09-07T23:26:47.702Z,16.02
2022-09-07T23:29:16.564Z,15.63
2022-09-07T23:31:46.499Z,15.73
2022-09-07T23:34:14.459Z,17.29
2022-09-07T23:36:42.197Z,18.71
2022-09-07T23:39:10.297Z,19.34
2022-09-07T23:41:39.198Z,18.53
2022-09-07T23:44:07.010Z,17.60
2022-09-07T23:46:34.688Z,16.93
2022-09-07T23:49:02.430Z,16.41
2022-09-07T23:51:30.094Z,16.02
2022-09-07T23:53:57.791Z,15.70
2022-09-07T23:56:26.042Z,15.43
2022-09-07T23:58:53.706Z,15.58
